createdAt,value
2018-12-31T00:00:50.211Z,4.67
2018-12-31T00:02:50.257Z,4.68
2018-12-31T00:04:50.612Z,4.69
2018-12-31T00:06:49.822Z,4.69
2018-12-31T00:08:49.900Z,4.69
2018-12-31T00:10:49.939Z,4.69
2018-12-31T00:12:49.919Z,4.67
2018-12-31T00:14:49.844Z,4.68
2018-12-31T00:16:50.159Z,4.68
2018-12-31T00:18:50.130Z,4.68
2018-12-31T00:20:50.100Z,4.68
2018-12-31T00:22:50.030Z,4.67
2018-12-31T00:24:50.039Z,4.67
2018-12-31T00:26:50.327Z,4.68
2018-12-31T00:28:50.319Z,4.68
2018-12-31T00:30:50.311Z,4.67
2018-12-31T00:32:50.360Z,4.67
2018-12-31T00:34:50.556Z,4.67
2018-12-31T00:36:49.841Z,4.67
2018-12-31T00:38:49.844Z,4.68
2018-12-31T00:40:49.777Z,4.68
2018-12-31T00:42:49.884Z,4.67
2018-12-31T00:44:49.954Z,4.67
2018-12-31T00:46:50.089Z,4.66
2018-12-31T00:48:50.029Z,4.66
2018-12-31T00:50:50.072Z,4.66
2018-12-31T00:52:50.055Z,4.66
2018-12-31T00:54:50.088Z,4.65
2018-12-31T00:56:50.350Z,4.64
2018-12-31T00:58:50.352Z,4.63
2018-12-31T01:00:50.309Z,4.63
2018-12-31T01:02:50.367Z,4.63
2018-12-31T01:04:49.741Z,4.62
2018-12-31T01:06:49.978Z,4.60
2018-12-31T01:08:49.933Z,4.60
2018-12-31T01:10:49.904Z,4.59
2018-12-31T01:12:50.022Z,4.59
2018-12-31T01:14:49.932Z,4.57
2018-12-31T01:16:50.012Z,4.57
2018-12-31T01:18:50.016Z,4.53
2018-12-31T01:20:50.009Z,4.53
2018-12-31T01:22:49.989Z,4.52
2018-12-31T01:24:49.978Z,4.52
2018-12-31T01:26:50.110Z,4.52
2018-12-31T01:28:50.115Z,4.49
2018-12-31T01:30:50.218Z,4.48
2018-12-31T01:32:50.196Z,4.47
2018-12-31T01:34:50.492Z,4.46
2018-12-31T01:36:49.761Z,4.47
2018-12-31T01:38:49.779Z,4.46
2018-12-31T01:40:49.806Z,4.43
2018-12-31T01:42:49.822Z,4.43
2018-12-31T01:44:49.796Z,4.42
2018-12-31T01:46:50.107Z,4.40
2018-12-31T01:48:50.101Z,4.38
2018-12-31T01:50:50.064Z,4.37
2018-12-31T01:52:50.016Z,4.37
2018-12-31T01:54:49.995Z,4.36
2018-12-31T01:56:50.202Z,4.35
2018-12-31T01:58:50.179Z,4.34
2018-12-31T02:00:50.195Z,4.33
2018-12-31T02:02:50.206Z,4.33
2018-12-31T02:04:50.513Z,4.33
2018-12-31T02:06:49.752Z,4.31
2018-12-31T02:08:49.874Z,4.28
2018-12-31T02:10:49.870Z,4.28
2018-12-31T02:12:50.263Z,4.27
2018-12-31T02:14:50.314Z,4.26
2018-12-31T02:16:50.671Z,4.25
2018-12-31T02:18:49.689Z,4.26
2018-12-31T02:20:49.705Z,4.24
2018-12-31T02:22:49.817Z,4.24
2018-12-31T02:24:49.865Z,4.25
2018-12-31T02:26:50.295Z,4.26
2018-12-31T02:28:50.342Z,4.27
2018-12-31T02:30:50.383Z,4.27
2018-12-31T02:32:50.456Z,4.26
2018-12-31T02:34:49.759Z,4.27
2018-12-31T02:36:49.967Z,4.27
2018-12-31T02:38:49.970Z,4.27
2018-12-31T02:40:49.929Z,4.27
2018-12-31T02:42:49.904Z,4.27
2018-12-31T02:44:49.893Z,4.27
2018-12-31T02:46:50.155Z,4.27
2018-12-31T02:48:50.115Z,4.27
2018-12-31T02:50:50.101Z,4.27
2018-12-31T02:52:50.100Z,4.27
2018-12-31T02:54:50.109Z,4.27
2018-12-31T02:56:50.351Z,4.27
2018-12-31T02:58:50.261Z,4.27
2018-12-31T03:00:50.307Z,4.28
2018-12-31T03:02:50.227Z,4.28
2018-12-31T03:04:50.475Z,4.29
2018-12-31T03:06:50.639Z,4.29
2018-12-31T03:08:49.749Z,4.29
2018-12-31T03:10:49.683Z,4.29
2018-12-31T03:12:49.713Z,4.29
2018-12-31T03:14:49.800Z,4.30
2018-12-31T03:16:49.985Z,4.28
2018-12-31T03:18:49.966Z,4.28
2018-12-31T03:20:49.955Z,4.26
2018-12-31T03:22:49.983Z,4.26
2018-12-31T03:24:49.925Z,4.26
2018-12-31T03:26:50.154Z,4.27
2018-12-31T03:28:50.124Z,4.27
2018-12-31T03:30:50.181Z,4.27
2018-12-31T03:32:50.156Z,4.27
2018-12-31T03:34:50.507Z,4.26
2018-12-31T03:36:49.748Z,4.26
2018-12-31T03:38:49.710Z,4.26
2018-12-31T03:40:49.736Z,4.26
2018-12-31T03:42:49.716Z,4.25
2018-12-31T03:44:50.662Z,4.25
2018-12-31T03:46:49.974Z,4.25
2018-12-31T03:48:49.913Z,4.25
2018-12-31T03:50:49.908Z,4.25
2018-12-31T03:52:49.883Z,4.25
2018-12-31T03:54:49.965Z,4.26
2018-12-31T03:56:50.773Z,4.26
2018-12-31T03:58:49.793Z,4.25
2018-12-31T04:00:49.853Z,4.25
2018-12-31T04:02:49.826Z,4.25
2018-12-31T04:04:50.205Z,4.26
2018-12-31T04:06:50.399Z,4.26
2018-12-31T04:08:50.412Z,4.28
2018-12-31T04:10:50.466Z,4.28
2018-12-31T04:12:50.441Z,4.28
2018-12-31T04:14:50.533Z,4.28
2018-12-31T04:16:49.830Z,4.29
2018-12-31T04:18:49.819Z,4.28
2018-12-31T04:20:49.823Z,4.28
2018-12-31T04:22:49.845Z,4.28
2018-12-31T04:24:49.839Z,4.29
2018-12-31T04:26:50.116Z,4.30
2018-12-31T04:28:50.091Z,4.30
2018-12-31T04:30:50.064Z,4.30
2018-12-31T04:32:50.079Z,4.31
2018-12-31T04:34:50.379Z,4.30
2018-12-31T04:36:49.745Z,4.30
2018-12-31T04:38:49.777Z,4.30
2018-12-31T04:40:49.811Z,4.31
2018-12-31T04:42:49.974Z,4.32
2018-12-31T04:44:49.922Z,4.32
2018-12-31T04:46:50.123Z,4.32
2018-12-31T04:48:50.088Z,4.32
2018-12-31T04:50:50.135Z,4.31
2018-12-31T04:52:50.143Z,4.31
2018-12-31T04:54:50.175Z,4.31
2018-12-31T04:56:50.376Z,4.32
2018-12-31T04:58:50.333Z,4.33
2018-12-31T05:00:50.348Z,4.34
2018-12-31T05:02:50.332Z,4.33
2018-12-31T05:04:50.634Z,4.33
2018-12-31T05:06:49.942Z,4.34
2018-12-31T05:08:49.938Z,4.33
2018-12-31T05:10:49.938Z,4.32
2018-12-31T05:12:50.006Z,4.32
2018-12-31T05:14:49.970Z,4.32
2018-12-31T05:16:50.275Z,4.32
2018-12-31T05:18:50.244Z,4.33
2018-12-31T05:20:50.262Z,4.33
2018-12-31T05:22:50.309Z,4.33
2018-12-31T05:24:50.344Z,4.34
2018-12-31T05:26:50.383Z,4.34
2018-12-31T05:28:50.356Z,4.35
2018-12-31T05:30:50.276Z,4.35
2018-12-31T05:32:50.268Z,4.34
2018-12-31T05:34:50.441Z,4.34
2018-12-31T05:36:50.543Z,4.35
2018-12-31T05:38:50.559Z,4.35
2018-12-31T05:40:50.446Z,4.35
2018-12-31T05:42:50.425Z,4.33
2018-12-31T05:44:50.391Z,4.34
2018-12-31T05:46:50.613Z,4.35
2018-12-31T05:48:50.700Z,4.35
2018-12-31T05:50:49.823Z,4.34
2018-12-31T05:52:49.817Z,4.34
2018-12-31T05:54:49.830Z,4.36
2018-12-31T05:56:50.156Z,4.37
2018-12-31T05:58:50.187Z,4.38
2018-12-31T06:00:50.142Z,4.37
2018-12-31T06:02:50.169Z,4.38
2018-12-31T06:04:50.485Z,4.38
2018-12-31T06:06:49.770Z,4.38
2018-12-31T06:08:49.770Z,4.38
2018-12-31T06:10:49.781Z,4.37
2018-12-31T06:12:49.902Z,4.36
2018-12-31T06:14:49.857Z,4.36
2018-12-31T06:16:50.103Z,4.36
2018-12-31T06:18:50.142Z,4.39
2018-12-31T06:20:50.139Z,4.40
2018-12-31T06:22:50.107Z,4.41
2018-12-31T06:24:50.115Z,4.41
2018-12-31T06:26:50.250Z,4.42
2018-12-31T06:28:50.241Z,4.42
2018-12-31T06:30:50.214Z,4.42
2018-12-31T06:32:50.210Z,4.42
2018-12-31T06:34:50.600Z,4.41
2018-12-31T06:36:50.514Z,4.41
2018-12-31T06:38:50.450Z,4.43
2018-12-31T06:40:50.462Z,4.43
2018-12-31T06:42:50.429Z,4.42
2018-12-31T06:44:50.420Z,4.40
2018-12-31T06:46:49.743Z,4.40
2018-12-31T06:48:49.730Z,4.39
2018-12-31T06:50:49.704Z,4.39
2018-12-31T06:52:49.757Z,4.39
2018-12-31T06:54:49.745Z,4.39
2018-12-31T06:56:49.999Z,4.40
2018-12-31T06:58:50.073Z,4.41
2018-12-31T07:00:50.084Z,4.42
2018-12-31T07:02:50.057Z,4.42
2018-12-31T07:04:50.370Z,4.40
2018-12-31T07:06:50.469Z,4.40
2018-12-31T07:08:50.504Z,4.40
2018-12-31T07:10:50.536Z,4.40
2018-12-31T07:12:50.501Z,4.38
2018-12-31T07:14:50.558Z,4.38
2018-12-31T07:16:49.701Z,4.40
2018-12-31T07:18:49.697Z,4.41
2018-12-31T07:20:49.709Z,4.41
2018-12-31T07:22:49.761Z,4.42
2018-12-31T07:24:49.805Z,4.43
2018-12-31T07:26:49.963Z,4.43
2018-12-31T07:28:50.073Z,4.45
2018-12-31T07:30:50.049Z,4.44
2018-12-31T07:32:50.017Z,4.43
2018-12-31T07:34:50.294Z,4.43
2018-12-31T07:36:50.497Z,4.44
2018-12-31T07:38:50.682Z,4.44
2018-12-31T07:40:50.640Z,4.42
2018-12-31T07:42:50.706Z,4.42
2018-12-31T07:44:50.637Z,4.42
2018-12-31T07:46:49.810Z,4.42
2018-12-31T07:48:49.815Z,4.41
2018-12-31T07:50:49.865Z,4.40
2018-12-31T07:52:50.045Z,4.40
2018-12-31T07:54:50.073Z,4.39
2018-12-31T07:56:50.204Z,4.39
2018-12-31T07:58:50.149Z,4.40
2018-12-31T08:00:50.168Z,4.40
2018-12-31T08:02:50.201Z,4.41
2018-12-31T08:04:50.488Z,4.44
2018-12-31T08:06:49.710Z,4.44
2018-12-31T08:08:49.820Z,4.43
2018-12-31T08:10:49.800Z,4.43
2018-12-31T08:12:49.831Z,4.44
2018-12-31T08:14:49.856Z,4.47
2018-12-31T08:16:50.013Z,4.47
2018-12-31T08:18:49.969Z,4.48
2018-12-31T08:20:49.994Z,4.49
2018-12-31T08:22:49.940Z,4.48
2018-12-31T08:24:49.887Z,4.49
2018-12-31T08:26:50.158Z,4.50
2018-12-31T08:28:50.209Z,4.52
2018-12-31T08:30:50.152Z,4.52
2018-12-31T08:32:50.170Z,4.53
2018-12-31T08:34:50.446Z,4.53
2018-12-31T08:36:50.620Z,4.51
2018-12-31T08:38:50.596Z,4.53
2018-12-31T08:40:50.618Z,4.54
2018-12-31T08:42:50.566Z,4.54
2018-12-31T08:44:50.601Z,4.54
2018-12-31T08:46:49.924Z,4.57
2018-12-31T08:48:49.909Z,4.59
2018-12-31T08:50:49.930Z,4.62
2018-12-31T08:52:49.883Z,4.61
2018-12-31T08:54:49.870Z,4.63
2018-12-31T08:56:49.994Z,4.67
2018-12-31T08:58:49.982Z,4.67
2018-12-31T09:00:49.970Z,4.69
2018-12-31T09:02:49.999Z,4.70
2018-12-31T09:04:50.244Z,4.74
2018-12-31T09:06:50.438Z,4.74
2018-12-31T09:08:50.405Z,4.77
2018-12-31T09:10:50.457Z,4.77
2018-12-31T09:12:50.436Z,4.80
2018-12-31T09:14:50.507Z,4.83
2018-12-31T09:16:49.812Z,4.85
2018-12-31T09:18:49.868Z,4.86
2018-12-31T09:20:50.013Z,4.86
2018-12-31T09:22:50.007Z,4.85
2018-12-31T09:24:49.972Z,4.87
2018-12-31T09:26:50.142Z,4.92
2018-12-31T09:28:50.111Z,4.96
2018-12-31T09:30:50.043Z,4.99
2018-12-31T09:32:49.992Z,4.99
2018-12-31T09:34:50.270Z,4.99
2018-12-31T09:36:50.459Z,5.00
2018-12-31T09:38:50.453Z,5.01
2018-12-31T09:40:50.412Z,5.00
2018-12-31T09:42:50.441Z,5.00
2018-12-31T09:44:50.475Z,5.03
2018-12-31T09:46:49.707Z,5.06
2018-12-31T09:48:50.646Z,5.11
2018-12-31T09:50:50.649Z,5.12
2018-12-31T09:52:50.717Z,5.14
2018-12-31T09:54:49.700Z,5.15
2018-12-31T09:56:49.960Z,5.15
2018-12-31T09:58:49.955Z,5.15
2018-12-31T10:00:49.924Z,5.15
2018-12-31T10:02:49.937Z,5.16
2018-12-31T10:04:50.239Z,5.20
2018-12-31T10:06:50.350Z,5.20
2018-12-31T10:08:50.312Z,5.21
2018-12-31T10:10:50.376Z,5.20
2018-12-31T10:12:50.361Z,5.19
2018-12-31T10:14:50.357Z,5.22
2018-12-31T10:16:50.519Z,5.22
2018-12-31T10:18:50.552Z,5.20
2018-12-31T10:20:50.478Z,5.20
2018-12-31T10:22:50.514Z,5.22
2018-12-31T10:24:50.544Z,5.24
2018-12-31T10:26:49.702Z,5.24
2018-12-31T10:28:49.711Z,5.24
2018-12-31T10:30:49.683Z,5.27
2018-12-31T10:32:49.798Z,5.30
2018-12-31T10:34:50.134Z,5.30
2018-12-31T10:36:50.371Z,5.30
2018-12-31T10:38:51.589Z,5.31
2018-12-31T10:40:50.574Z,5.36
2018-12-31T10:42:50.556Z,5.37
2018-12-31T10:44:50.490Z,5.35
2018-12-31T10:46:49.829Z,5.34
2018-12-31T10:48:49.802Z,5.35
2018-12-31T10:50:49.875Z,5.36
2018-12-31T10:52:49.850Z,5.35
2018-12-31T10:54:49.851Z,5.36
2018-12-31T10:56:50.022Z,5.36
2018-12-31T10:58:49.972Z,5.33
2018-12-31T11:00:50.041Z,5.33
2018-12-31T11:02:50.034Z,5.32
2018-12-31T11:04:50.095Z,5.32
2018-12-31T11:06:50.317Z,5.29
2018-12-31T11:08:50.288Z,5.27
2018-12-31T11:10:50.258Z,5.27
2018-12-31T11:12:50.395Z,5.30
2018-12-31T11:14:50.297Z,5.30
2018-12-31T11:16:50.413Z,5.34
2018-12-31T11:18:50.380Z,5.35
2018-12-31T11:20:50.410Z,5.35
2018-12-31T11:22:50.391Z,5.37
2018-12-31T11:24:50.334Z,5.44
2018-12-31T11:26:50.627Z,5.45
2018-12-31T11:28:50.610Z,5.46
2018-12-31T11:30:52.082Z,5.48
2018-12-31T11:32:50.069Z,5.52
2018-12-31T11:34:50.281Z,5.57
2018-12-31T11:36:50.464Z,5.60
2018-12-31T11:38:50.447Z,5.60
2018-12-31T11:40:50.427Z,5.61
2018-12-31T11:42:50.474Z,5.62
2018-12-31T11:44:50.400Z,5.59
2018-12-31T11:46:50.638Z,5.60
2018-12-31T11:48:50.567Z,5.61
2018-12-31T11:50:50.608Z,5.60
2018-12-31T11:52:49.803Z,5.61
2018-12-31T11:54:49.785Z,5.61
2018-12-31T11:56:50.040Z,5.67
2018-12-31T11:58:50.029Z,5.68
2018-12-31T12:00:50.023Z,5.71
2018-12-31T12:02:50.070Z,5.74
2018-12-31T12:04:50.197Z,5.75
2018-12-31T12:06:50.280Z,5.80
2018-12-31T12:08:50.347Z,5.82
2018-12-31T12:10:50.331Z,5.86
2018-12-31T12:12:50.400Z,5.87
2018-12-31T12:14:50.448Z,5.89
2018-12-31T12:16:49.702Z,5.89
2018-12-31T12:18:50.699Z,5.90
2018-12-31T12:20:49.713Z,5.99
2018-12-31T12:22:49.851Z,6.05
2018-12-31T12:24:49.835Z,6.09
2018-12-31T12:26:50.781Z,6.10
2018-12-31T12:28:50.339Z,6.11
2018-12-31T12:30:50.192Z,6.12
2018-12-31T12:32:50.050Z,6.18
2018-12-31T12:34:50.348Z,6.18
2018-12-31T12:36:50.459Z,6.19
2018-12-31T12:38:50.473Z,6.20
2018-12-31T12:40:50.501Z,6.21
2018-12-31T12:42:50.468Z,6.22
2018-12-31T12:44:51.313Z,6.23
2018-12-31T12:46:50.075Z,6.23
2018-12-31T12:48:50.097Z,6.19
2018-12-31T12:50:50.151Z,6.18
2018-12-31T12:52:50.224Z,6.20
2018-12-31T12:54:50.226Z,6.27
2018-12-31T12:56:50.419Z,6.29
2018-12-31T12:58:50.404Z,6.29
2018-12-31T13:00:50.405Z,6.28
2018-12-31T13:02:50.460Z,6.30
2018-12-31T13:04:49.905Z,6.31
2018-12-31T13:06:50.051Z,6.30
2018-12-31T13:08:50.074Z,6.31
2018-12-31T13:10:50.825Z,6.36
2018-12-31T13:12:50.180Z,6.38
2018-12-31T13:14:50.209Z,6.36
2018-12-31T13:16:50.695Z,6.36
2018-12-31T13:18:50.690Z,6.32
2018-12-31T13:20:49.810Z,6.31
2018-12-31T13:22:49.803Z,6.31
2018-12-31T13:24:49.905Z,6.32
2018-12-31T13:26:50.167Z,6.32
2018-12-31T13:28:51.032Z,6.35
2018-12-31T13:30:50.482Z,6.35
2018-12-31T13:32:50.528Z,6.36
2018-12-31T13:34:50.021Z,6.36
2018-12-31T13:36:50.205Z,6.32
2018-12-31T13:38:50.197Z,6.32
2018-12-31T13:40:50.205Z,6.32
2018-12-31T13:42:50.209Z,6.33
2018-12-31T13:44:50.238Z,6.44
2018-12-31T13:46:50.641Z,6.48
2018-12-31T13:48:50.649Z,6.50
2018-12-31T13:50:49.750Z,6.50
2018-12-31T13:52:49.724Z,6.54
2018-12-31T13:54:50.498Z,6.48
2018-12-31T13:56:49.971Z,6.46
2018-12-31T13:58:49.963Z,6.46
2018-12-31T14:00:49.981Z,6.47
2018-12-31T14:02:49.929Z,6.52
2018-12-31T14:04:50.211Z,6.55
2018-12-31T14:06:50.443Z,6.55
2018-12-31T14:08:50.464Z,6.54
2018-12-31T14:10:50.545Z,6.54
2018-12-31T14:12:52.914Z,6.57
2018-12-31T14:14:49.901Z,6.59
2018-12-31T14:16:50.076Z,6.59
2018-12-31T14:18:50.082Z,6.54
2018-12-31T14:20:50.129Z,6.53
2018-12-31T14:22:50.122Z,6.49
2018-12-31T14:24:50.094Z,6.48
2018-12-31T14:26:50.321Z,6.46
2018-12-31T14:28:50.325Z,6.45
2018-12-31T14:30:50.917Z,6.44
2018-12-31T14:32:50.565Z,6.43
2018-12-31T14:34:50.148Z,6.42
2018-12-31T14:36:50.235Z,6.42
2018-12-31T14:38:50.309Z,6.43
2018-12-31T14:40:50.346Z,6.44
2018-12-31T14:42:50.438Z,6.45
2018-12-31T14:44:50.444Z,6.45
2018-12-31T14:46:50.701Z,6.45
2018-12-31T14:48:50.640Z,6.44
2018-12-31T14:50:50.713Z,6.44
2018-12-31T14:52:49.709Z,6.44
2018-12-31T14:54:49.729Z,6.44
2018-12-31T14:56:50.644Z,6.43
2018-12-31T14:58:50.098Z,6.43
2018-12-31T15:00:50.121Z,6.42
2018-12-31T15:02:50.205Z,6.42
2018-12-31T15:04:50.654Z,6.43
2018-12-31T15:06:49.916Z,6.42
2018-12-31T15:08:49.932Z,6.41
2018-12-31T15:10:49.920Z,6.40
2018-12-31T15:12:49.956Z,6.40
2018-12-31T15:14:49.919Z,6.39
2018-12-31T15:16:50.389Z,6.36
2018-12-31T15:18:50.352Z,6.36
2018-12-31T15:20:50.437Z,6.37
2018-12-31T15:22:50.492Z,6.37
2018-12-31T15:24:50.574Z,6.33
2018-12-31T15:26:49.757Z,6.35
2018-12-31T15:28:49.801Z,6.34
2018-12-31T15:30:49.828Z,6.34
2018-12-31T15:32:49.838Z,6.34
2018-12-31T15:34:50.255Z,6.33
2018-12-31T15:36:50.520Z,6.33
2018-12-31T15:38:50.518Z,6.33
2018-12-31T15:40:51.552Z,6.34
2018-12-31T15:42:50.097Z,6.33
2018-12-31T15:44:50.113Z,6.32
2018-12-31T15:46:50.323Z,6.31
2018-12-31T15:48:50.339Z,6.31
2018-12-31T15:50:50.372Z,6.30
2018-12-31T15:52:50.321Z,6.30
2018-12-31T15:54:50.355Z,6.29
2018-12-31T15:56:50.568Z,6.29
2018-12-31T15:58:50.577Z,6.29
2018-12-31T16:00:50.587Z,6.29
2018-12-31T16:02:50.626Z,6.28
2018-12-31T16:04:50.170Z,6.28
2018-12-31T16:06:51.322Z,6.27
2018-12-31T16:08:49.911Z,6.26
2018-12-31T16:10:49.937Z,6.27
2018-12-31T16:12:49.885Z,6.27
2018-12-31T16:14:49.935Z,6.28
2018-12-31T16:16:50.267Z,6.28
2018-12-31T16:18:50.358Z,6.27
2018-12-31T16:20:50.376Z,6.27
2018-12-31T16:22:50.444Z,6.27
2018-12-31T16:24:50.421Z,6.29
2018-12-31T16:26:49.700Z,6.29
2018-12-31T16:28:49.855Z,6.30
2018-12-31T16:30:49.874Z,6.30
2018-12-31T16:32:50.842Z,6.30
2018-12-31T16:34:49.820Z,6.31
2018-12-31T16:36:50.043Z,6.32
2018-12-31T16:38:49.998Z,6.32
2018-12-31T16:40:49.959Z,6.32
2018-12-31T16:42:49.906Z,6.33
2018-12-31T16:44:49.913Z,6.34
2018-12-31T16:46:50.096Z,6.33
2018-12-31T16:48:50.152Z,6.33
2018-12-31T16:50:50.184Z,6.32
2018-12-31T16:52:50.249Z,6.32
2018-12-31T16:54:50.299Z,6.32
2018-12-31T16:56:50.508Z,6.33
2018-12-31T16:58:51.480Z,6.33
2018-12-31T17:00:50.140Z,6.34
2018-12-31T17:02:50.166Z,6.34
2018-12-31T17:04:50.499Z,6.34
2018-12-31T17:06:50.724Z,6.35
2018-12-31T17:08:49.724Z,6.35
2018-12-31T17:10:49.816Z,6.36
2018-12-31T17:12:50.030Z,6.36
2018-12-31T17:14:50.079Z,6.35
2018-12-31T17:16:50.273Z,6.35
2018-12-31T17:18:50.358Z,6.35
2018-12-31T17:20:50.387Z,6.35
2018-12-31T17:22:50.458Z,6.34
2018-12-31T17:24:50.461Z,6.33
2018-12-31T17:26:50.140Z,6.32
2018-12-31T17:28:50.216Z,6.32
2018-12-31T17:30:50.272Z,6.31
2018-12-31T17:32:50.898Z,6.30
2018-12-31T17:34:50.533Z,6.30
2018-12-31T17:36:49.865Z,6.30
2018-12-31T17:38:49.912Z,6.29
2018-12-31T17:40:49.972Z,6.29
2018-12-31T17:42:50.041Z,6.29
2018-12-31T17:44:50.091Z,6.30
2018-12-31T17:46:50.239Z,6.30
2018-12-31T17:48:50.251Z,6.30
2018-12-31T17:50:50.311Z,6.29
2018-12-31T17:52:50.370Z,6.29
2018-12-31T17:54:50.332Z,6.29
2018-12-31T17:56:50.698Z,6.29
2018-12-31T17:58:50.635Z,6.29
2018-12-31T18:00:50.034Z,6.29
2018-12-31T18:02:50.159Z,6.29
2018-12-31T18:04:50.606Z,6.30
2018-12-31T18:06:49.893Z,6.30
2018-12-31T18:08:49.879Z,6.29
2018-12-31T18:10:49.973Z,6.28
2018-12-31T18:12:49.995Z,6.27
2018-12-31T18:14:50.110Z,6.27
2018-12-31T18:16:50.328Z,6.26
2018-12-31T18:18:50.495Z,6.25
2018-12-31T18:20:50.478Z,6.25
2018-12-31T18:22:50.675Z,6.24
2018-12-31T18:24:51.344Z,6.24
2018-12-31T18:26:49.837Z,6.25
2018-12-31T18:28:49.950Z,6.25
2018-12-31T18:30:49.941Z,6.23
2018-12-31T18:32:49.923Z,6.25
2018-12-31T18:34:50.192Z,6.25
2018-12-31T18:36:50.415Z,6.25
2018-12-31T18:38:50.443Z,6.26
2018-12-31T18:40:50.476Z,6.26
2018-12-31T18:42:50.507Z,6.26
2018-12-31T18:44:49.704Z,6.23
2018-12-31T18:46:49.938Z,6.22
2018-12-31T18:48:49.982Z,6.18
2018-12-31T18:50:50.698Z,6.16
2018-12-31T18:52:50.215Z,6.13
2018-12-31T18:54:50.285Z,6.08
2018-12-31T18:56:50.524Z,6.06
2018-12-31T18:58:50.610Z,6.01
2018-12-31T19:00:49.698Z,6.00
2018-12-31T19:02:49.712Z,5.99
2018-12-31T19:04:50.266Z,5.98
2018-12-31T19:06:50.607Z,5.94
2018-12-31T19:08:50.690Z,5.92
2018-12-31T19:10:49.766Z,5.92
2018-12-31T19:12:49.848Z,5.92
2018-12-31T19:14:49.940Z,5.92
2018-12-31T19:16:51.169Z,5.92
2018-12-31T19:18:49.695Z,5.91
2018-12-31T19:20:49.767Z,5.91
2018-12-31T19:22:49.882Z,5.91
2018-12-31T19:24:49.899Z,5.90
2018-12-31T19:26:50.222Z,5.91
2018-12-31T19:28:50.204Z,5.92
2018-12-31T19:30:50.301Z,5.93
2018-12-31T19:32:50.277Z,5.93
2018-12-31T19:34:50.647Z,5.99
2018-12-31T19:36:49.941Z,6.00
2018-12-31T19:38:50.003Z,6.03
2018-12-31T19:40:50.094Z,6.03
2018-12-31T19:42:50.683Z,6.04
2018-12-31T19:44:50.277Z,6.07
2018-12-31T19:46:50.475Z,6.08
2018-12-31T19:48:50.450Z,6.10
2018-12-31T19:50:51.069Z,6.10
2018-12-31T19:52:50.389Z,6.11
2018-12-31T19:54:50.535Z,6.11
2018-12-31T19:56:49.809Z,6.11
2018-12-31T19:58:49.907Z,6.12
2018-12-31T20:00:49.995Z,6.11
2018-12-31T20:02:50.000Z,6.12
2018-12-31T20:04:50.261Z,6.12
2018-12-31T20:06:50.484Z,6.13
2018-12-31T20:08:50.515Z,6.13
2018-12-31T20:10:50.529Z,6.14
2018-12-31T20:12:50.503Z,6.15
2018-12-31T20:14:50.575Z,6.16
2018-12-31T20:16:50.663Z,6.16
2018-12-31T20:18:50.318Z,6.16
2018-12-31T20:20:50.393Z,6.15
2018-12-31T20:22:50.477Z,6.14
2018-12-31T20:24:51.058Z,6.14
2018-12-31T20:26:50.418Z,6.15
2018-12-31T20:28:50.493Z,6.14
2018-12-31T20:30:50.506Z,6.14
2018-12-31T20:32:50.659Z,6.16
2018-12-31T20:34:49.996Z,6.16
2018-12-31T20:36:50.221Z,6.16
2018-12-31T20:38:50.235Z,6.16
2018-12-31T20:40:50.299Z,6.15
2018-12-31T20:42:50.328Z,6.16
2018-12-31T20:44:50.441Z,6.16
2018-12-31T20:46:49.811Z,6.15
2018-12-31T20:48:49.905Z,6.15
2018-12-31T20:50:49.936Z,6.16
2018-12-31T20:52:49.913Z,6.15
2018-12-31T20:54:49.959Z,6.15
2018-12-31T20:56:50.070Z,6.14
2018-12-31T20:58:50.105Z,6.15
2018-12-31T21:00:50.097Z,6.16
2018-12-31T21:02:50.118Z,6.16
2018-12-31T21:04:50.436Z,6.19
2018-12-31T21:06:49.719Z,6.19
2018-12-31T21:08:49.847Z,6.20
2018-12-31T21:10:49.832Z,6.21
2018-12-31T21:12:49.951Z,6.23
2018-12-31T21:14:50.820Z,6.23
2018-12-31T21:16:50.220Z,6.24
2018-12-31T21:18:50.255Z,6.25
2018-12-31T21:20:50.391Z,6.25
2018-12-31T21:22:50.426Z,6.25
2018-12-31T21:24:50.494Z,6.26
2018-12-31T21:26:49.786Z,6.26
2018-12-31T21:28:49.855Z,6.25
2018-12-31T21:30:50.088Z,6.26
2018-12-31T21:32:50.121Z,6.26
2018-12-31T21:34:50.402Z,6.26
2018-12-31T21:36:50.739Z,6.26
2018-12-31T21:38:49.867Z,6.26
2018-12-31T21:40:49.844Z,6.24
2018-12-31T21:42:49.925Z,6.24
2018-12-31T21:44:49.939Z,6.23
2018-12-31T21:46:50.018Z,6.24
2018-12-31T21:48:50.873Z,6.24
2018-12-31T21:50:50.436Z,6.22
2018-12-31T21:52:50.381Z,6.22
2018-12-31T21:54:50.406Z,6.23
2018-12-31T21:56:50.722Z,6.24
2018-12-31T21:58:49.736Z,6.24
2018-12-31T22:00:49.822Z,6.22
2018-12-31T22:02:57.624Z,6.22
2018-12-31T22:04:50.078Z,6.21
2018-12-31T22:06:50.244Z,6.22
2018-12-31T22:08:50.275Z,6.21
2018-12-31T22:10:50.328Z,6.20
2018-12-31T22:12:50.351Z,6.19
2018-12-31T22:14:50.396Z,6.19
2018-12-31T22:16:50.621Z,6.18
2018-12-31T22:18:50.591Z,6.18
2018-12-31T22:20:50.770Z,6.16
2018-12-31T22:22:50.771Z,6.15
2018-12-31T22:24:50.223Z,6.16
2018-12-31T22:26:51.971Z,6.16
2018-12-31T22:28:49.986Z,6.16
2018-12-31T22:30:50.059Z,6.16
2018-12-31T22:32:50.145Z,6.16
2018-12-31T22:34:50.524Z,6.16
2018-12-31T22:36:49.756Z,6.17
2018-12-31T22:38:49.894Z,6.17
2018-12-31T22:40:49.908Z,6.16
2018-12-31T22:42:49.922Z,6.17
2018-12-31T22:44:49.933Z,6.16
2018-12-31T22:46:50.077Z,6.14
2018-12-31T22:48:50.757Z,6.13
2018-12-31T22:50:50.496Z,6.12
2018-12-31T22:52:50.537Z,6.12
2018-12-31T22:54:50.504Z,6.11
2018-12-31T22:56:49.748Z,6.11
2018-12-31T22:58:49.805Z,6.11
2018-12-31T23:00:49.952Z,6.11
2018-12-31T23:02:50.008Z,6.10
2018-12-31T23:04:50.250Z,6.09
2018-12-31T23:06:50.440Z,6.09
2018-12-31T23:08:50.593Z,6.09
2018-12-31T23:10:50.685Z,6.08
2018-12-31T23:12:50.767Z,6.08
2018-12-31T23:14:50.697Z,6.07
2018-12-31T23:16:50.493Z,6.06
2018-12-31T23:18:50.534Z,6.07
2018-12-31T23:20:50.510Z,6.06
2018-12-31T23:22:50.616Z,6.05
2018-12-31T23:24:50.685Z,6.05
2018-12-31T23:26:49.937Z,6.04
2018-12-31T23:28:53.126Z,6.05
2018-12-31T23:30:50.159Z,6.05
2018-12-31T23:32:50.242Z,6.05
2018-12-31T23:34:50.558Z,6.05
2018-12-31T23:36:49.789Z,6.05
2018-12-31T23:38:49.834Z,6.04
2018-12-31T23:40:49.913Z,6.05
2018-12-31T23:42:49.972Z,6.03
2018-12-31T23:44:53.634Z,6.02
2018-12-31T23:46:49.842Z,6.02
2018-12-31T23:48:50.729Z,6.02
2018-12-31T23:50:50.200Z,6.00
2018-12-31T23:52:50.226Z,6.00
2018-12-31T23:54:50.289Z,6.01
2018-12-31T23:56:50.967Z,6.01
2018-12-31T23:58:50.022Z,6.01
